sensor_id;sensor_type;location;lat;lon;timestamp;pressure;altitude;pressure_sealevel;temperature;humidity
47753;BME280;2038;51.728;6.674;2023-03-19T00:00:24;100524.16;;;12.62;100.00
47753;BME280;2038;51.728;6.674;2023-03-19T00:02:50;100520.81;;;12.63;100.00
47753;BME280;2038;51.728;6.674;2023-03-19T00:05:17;100523.84;;;12.73;100.00
47753;BME280;2038;51.728;6.674;2023-03-19T00:07:44;100506.66;;;12.70;100.00
47753;BME280;2038;51.728;6.674;2023-03-19T00:10:11;100504.84;;;12.68;100.00
47753;BME280;2038;51.728;6.674;2023-03-19T00:12:37;100513.19;;;12.65;100.00
47753;BME280;2038;51.728;6.674;2023-03-19T00:15:04;100508.66;;;12.59;100.00
47753;BME280;2038;51.728;6.674;2023-03-19T00:17:32;100503.94;;;12.51;100.00
47753;BME280;2038;51.728;6.674;2023-03-19T00:19:58;100493.63;;;12.49;100.00
47753;BME280;2038;51.728;6.674;2023-03-19T00:22:25;100490.81;;;12.45;100.00
47753;BME280;2038;51.728;6.674;2023-03-19T00:24:51;100477.72;;;12.39;100.00
47753;BME280;2038;51.728;6.674;2023-03-19T00:27:18;100480.28;;;12.39;100.00
47753;BME280;2038;51.728;6.674;2023-03-19T00:29:44;100474.97;;;12.36;100.00
47753;BME280;2038;51.728;6.674;2023-03-19T00:32:10;100470.69;;;12.35;100.00
47753;BME280;2038;51.728;6.674;2023-03-19T00:34:37;100469.03;;;12.35;100.00
47753;BME280;2038;51.728;6.674;2023-03-19T00:37:03;100466.22;;;12.31;100.00
47753;BME280;2038;51.728;6.674;2023-03-19T00:39:29;100468.50;;;12.26;100.00
47753;BME280;2038;51.728;6.674;2023-03-19T00:41:55;100467.31;;;12.19;100.00
47753;BME280;2038;51.728;6.674;2023-03-19T00:44:22;100473.69;;;12.11;100.00
47753;BME280;2038;51.728;6.674;2023-03-19T00:46:48;100477.97;;;12.12;100.00
47753;BME280;2038;51.728;6.674;2023-03-19T00:49:14;100471.81;;;12.09;100.00
47753;BME280;2038;51.728;6.674;2023-03-19T00:51:40;100473.34;;;12.05;100.00
47753;BME280;2038;51.728;6.674;2023-03-19T00:54:10;100472.19;;;12.00;100.00
47753;BME280;2038;51.728;6.674;2023-03-19T00:56:37;100469.38;;;11.96;100.00
47753;BME280;2038;51.728;6.674;2023-03-19T00:59:04;100462.34;;;11.92;100.00
47753;BME280;2038;51.728;6.674;2023-03-19T01:01:30;100469.06;;;11.90;100.00
47753;BME280;2038;51.728;6.674;2023-03-19T01:03:57;100471.53;;;11.88;100.00
47753;BME280;2038;51.728;6.674;2023-03-19T01:06:23;100474.16;;;11.90;100.00
47753;BME280;2038;51.728;6.674;2023-03-19T01:08:50;100478.28;;;11.88;100.00
47753;BME280;2038;51.728;6.674;2023-03-19T01:11:16;100469.06;;;11.90;100.00
47753;BME280;2038;51.728;6.674;2023-03-19T01:13:44;100474.69;;;11.99;100.00
47753;BME280;2038;51.728;6.674;2023-03-19T01:16:10;100470.63;;;12.02;100.00
47753;BME280;2038;51.728;6.674;2023-03-19T01:18:37;100470.63;;;12.02;100.00
47753;BME280;2038;51.728;6.674;2023-03-19T01:21:03;100469.75;;;12.02;100.00
47753;BME280;2038;51.728;6.674;2023-03-19T01:23:31;100472.19;;;12.00;100.00
47753;BME280;2038;51.728;6.674;2023-03-19T01:25:57;100467.97;;;12.01;100.00
47753;BME280;2038;51.728;6.674;2023-03-19T01:28:24;100464.47;;;11.99;100.00
47753;BME280;2038;51.728;6.674;2023-03-19T01:30:50;100460.31;;;12.01;100.00
47753;BME280;2038;51.728;6.674;2023-03-19T01:33:17;100455.66;;;11.94;100.00
47753;BME280;2038;51.728;6.674;2023-03-19T01:35:46;100458.47;;;11.98;100.00
47753;BME280;2038;51.728;6.674;2023-03-19T01:38:15;100456.28;;;11.90;100.00
47753;BME280;2038;51.728;6.674;2023-03-19T01:40:46;100458.06;;;11.91;100.00
47753;BME280;2038;51.728;6.674;2023-03-19T01:43:22;100451.09;;;11.88;100.00
47753;BME280;2038;51.728;6.674;2023-03-19T01:45:54;100450.22;;;11.88;100.00
47753;BME280;2038;51.728;6.674;2023-03-19T01:48:43;100454.69;;;11.92;100.00
47753;BME280;2038;51.728;6.674;2023-03-19T01:51:15;100454.63;;;11.76;100.00
47753;BME280;2038;51.728;6.674;2023-03-19T01:53:49;100454.28;;;11.69;100.00
47753;BME280;2038;51.728;6.674;2023-03-19T01:56:22;100452.81;;;11.73;100.00
47753;BME280;2038;51.728;6.674;2023-03-19T01:58:56;100449.53;;;11.76;100.00
47753;BME280;2038;51.728;6.674;2023-03-19T02:01:27;100444.78;;;11.67;100.00
47753;BME280;2038;51.728;6.674;2023-03-19T02:03:59;100450.50;;;11.78;100.00
47753;BME280;2038;51.728;6.674;2023-03-19T02:06:26;100446.97;;;11.76;100.00
47753;BME280;2038;51.728;6.674;2023-03-19T02:08:55;100443.78;;;11.80;100.00
47753;BME280;2038;51.728;6.674;2023-03-19T02:11:21;100443.25;;;11.85;100.00
47753;BME280;2038;51.728;6.674;2023-03-19T02:13:48;100445.50;;;11.79;100.00
47753;BME280;2038;51.728;6.674;2023-03-19T02:16:14;100441.00;;;11.75;100.00
47753;BME280;2038;51.728;6.674;2023-03-19T02:18:41;100450.41;;;11.76;100.00
47753;BME280;2038;51.728;6.674;2023-03-19T02:21:10;100455.63;;;11.78;100.00
47753;BME280;2038;51.728;6.674;2023-03-19T02:24:07;100447.91;;;11.92;100.00
47753;BME280;2038;51.728;6.674;2023-03-19T02:26:39;100453.00;;;11.92;100.00
47753;BME280;2038;51.728;6.674;2023-03-19T02:29:07;100450.22;;;11.88;100.00
47753;BME280;2038;51.728;6.674;2023-03-19T02:31:35;100451.28;;;11.91;100.00
47753;BME280;2038;51.728;6.674;2023-03-19T02:34:31;100452.94;;;11.91;100.00
47753;BME280;2038;51.728;6.674;2023-03-19T02:36:59;100460.41;;;11.88;100.00
47753;BME280;2038;51.728;6.674;2023-03-19T02:39:46;100460.19;;;11.83;100.00
47753;BME280;2038;51.728;6.674;2023-03-19T02:42:18;100454.19;;;11.83;100.00
47753;BME280;2038;51.728;6.674;2023-03-19T02:44:46;100455.16;;;11.85;100.00
47753;BME280;2038;51.728;6.674;2023-03-19T02:47:13;100452.84;;;11.89;100.00
47753;BME280;2038;51.728;6.674;2023-03-19T02:49:40;100446.97;;;11.90;100.00
47753;BME280;2038;51.728;6.674;2023-03-19T02:52:06;100452.53;;;11.83;100.00
47753;BME280;2038;51.728;6.674;2023-03-19T02:54:33;100452.44;;;11.82;100.00
47753;BME280;2038;51.728;6.674;2023-03-19T02:56:59;100452.53;;;11.83;100.00
47753;BME280;2038;51.728;6.674;2023-03-19T02:59:26;100445.19;;;11.89;100.00
47753;BME280;2038;51.728;6.674;2023-03-19T03:01:52;100448.41;;;12.01;100.00
47753;BME280;2038;51.728;6.674;2023-03-19T03:04:18;100451.59;;;11.97;100.00
47753;BME280;2038;51.728;6.674;2023-03-19T03:06:44;100452.81;;;12.04;100.00
47753;BME280;2038;51.728;6.674;2023-03-19T03:09:12;100450.19;;;12.02;100.00
47753;BME280;2038;51.728;6.674;2023-03-19T03:11:39;100461.97;;;12.00;100.00
47753;BME280;2038;51.728;6.674;2023-03-19T03:14:08;100455.03;;;11.98;100.00
47753;BME280;2038;51.728;6.674;2023-03-19T03:16:35;100455.03;;;11.98;100.00
47753;BME280;2038;51.728;6.674;2023-03-19T03:19:03;100455.97;;;12.00;100.00
47753;BME280;2038;51.728;6.674;2023-03-19T03:21:30;100449.16;;;11.99;100.00
47753;BME280;2038;51.728;6.674;2023-03-19T03:23:57;100457.75;;;12.01;100.00
47753;BME280;2038;51.728;6.674;2023-03-19T03:26:23;100461.03;;;11.98;100.00
47753;BME280;2038;51.728;6.674;2023-03-19T03:28:49;100464.88;;;12.06;100.00
47753;BME280;2038;51.728;6.674;2023-03-19T03:31:17;100472.13;;;11.99;100.00
47753;BME280;2038;51.728;6.674;2023-03-19T03:33:44;100468.69;;;11.98;100.00
47753;BME280;2038;51.728;6.674;2023-03-19T03:36:11;100471.41;;;12.01;100.00
47753;BME280;2038;51.728;6.674;2023-03-19T03:38:38;100473.06;;;12.01;100.00
47753;BME280;2038;51.728;6.674;2023-03-19T03:41:04;100474.75;;;12.00;100.00
47753;BME280;2038;51.728;6.674;2023-03-19T03:43:31;100467.97;;;12.01;100.00
47753;BME280;2038;51.728;6.674;2023-03-19T03:45:57;100467.28;;;12.03;100.00
47753;BME280;2038;51.728;6.674;2023-03-19T03:48:23;100466.19;;;12.14;100.00
47753;BME280;2038;51.728;6.674;2023-03-19T03:50:50;100469.25;;;12.24;100.00
47753;BME280;2038;51.728;6.674;2023-03-19T03:53:17;100479.78;;;12.30;100.00
47753;BME280;2038;51.728;6.674;2023-03-19T03:55:43;100475.44;;;12.29;100.00
47753;BME280;2038;51.728;6.674;2023-03-19T03:58:09;100482.97;;;12.26;100.00
47753;BME280;2038;51.728;6.674;2023-03-19T04:00:38;100481.44;;;12.29;100.00
47753;BME280;2038;51.728;6.674;2023-03-19T04:03:04;100485.34;;;12.23;100.00
47753;BME280;2038;51.728;6.674;2023-03-19T04:05:30;100485.84;;;12.32;100.00
47753;BME280;2038;51.728;6.674;2023-03-19T04:07:57;100473.00;;;12.30;100.00
47753;BME280;2038;51.728;6.674;2023-03-19T04:10:23;100481.69;;;12.34;100.00
47753;BME280;2038;51.728;6.674;2023-03-19T04:12:50;100477.38;;;12.33;100.00
47753;BME280;2038;51.728;6.674;2023-03-19T04:15:16;100479.94;;;12.33;100.00
47753;BME280;2038;51.728;6.674;2023-03-19T04:17:42;100484.25;;;12.34;100.00
47753;BME280;2038;51.728;6.674;2023-03-19T04:20:10;100488.06;;;12.26;100.00
47753;BME280;2038;51.728;6.674;2023-03-19T04:22:37;100481.75;;;12.19;100.00
47753;BME280;2038;51.728;6.674;2023-03-19T04:25:04;100473.28;;;12.20;100.00
47753;BME280;2038;51.728;6.674;2023-03-19T04:27:33;100480.88;;;12.18;100.00
47753;BME280;2038;51.728;6.674;2023-03-19T04:29:59;100483.84;;;12.26;100.00
47753;BME280;2038;51.728;6.674;2023-03-19T04:32:26;100489.91;;;12.28;100.00
47753;BME280;2038;51.728;6.674;2023-03-19T04:34:53;100488.97;;;12.26;100.00
47753;BME280;2038;51.728;6.674;2023-03-19T04:37:19;100486.25;;;12.23;100.00
47753;BME280;2038;51.728;6.674;2023-03-19T04:39:45;100493.72;;;12.20;100.00
47753;BME280;2038;51.728;6.674;2023-03-19T04:42:12;100487.16;;;12.09;100.00
47753;BME280;2038;51.728;6.674;2023-03-19T04:44:38;100494.19;;;12.13;100.00
47753;BME280;2038;51.728;6.674;2023-03-19T04:47:04;100497.63;;;12.13;100.00
47753;BME280;2038;51.728;6.674;2023-03-19T04:49:31;100491.41;;;12.25;100.00
47753;BME280;2038;51.728;6.674;2023-03-19T04:51:57;100498.38;;;12.27;100.00
47753;BME280;2038;51.728;6.674;2023-03-19T04:54:24;100501.16;;;12.32;100.00
47753;BME280;2038;51.728;6.674;2023-03-19T04:56:50;100501.72;;;12.26;100.00
47753;BME280;2038;51.728;6.674;2023-03-19T04:59:17;100494.44;;;12.17;100.00
47753;BME280;2038;51.728;6.674;2023-03-19T05:01:44;100501.56;;;12.23;100.00
47753;BME280;2038;51.728;6.674;2023-03-19T05:04:11;100499.19;;;12.26;100.00
47753;BME280;2038;51.728;6.674;2023-03-19T05:06:38;100502.63;;;12.27;100.00
47753;BME280;2038;51.728;6.674;2023-03-19T05:09:05;100512.22;;;12.31;100.00
47753;BME280;2038;51.728;6.674;2023-03-19T05:11:32;100515.56;;;12.30;100.00
47753;BME280;2038;51.728;6.674;2023-03-19T05:13:59;100517.31;;;12.31;100.00
47753;BME280;2038;51.728;6.674;2023-03-19T05:16:25;100522.34;;;12.29;100.00
47753;BME280;2038;51.728;6.674;2023-03-19T05:18:52;100513.50;;;12.39;100.00
47753;BME280;2038;51.728;6.674;2023-03-19T05:21:18;100519.03;;;12.46;100.00
47753;BME280;2038;51.728;6.674;2023-03-19T05:23:45;100519.66;;;12.42;100.00
47753;BME280;2038;51.728;6.674;2023-03-19T05:26:11;100518.03;;;12.44;100.00
47753;BME280;2038;51.728;6.674;2023-03-19T05:28:37;100523.34;;;12.47;100.00
47753;BME280;2038;51.728;6.674;2023-03-19T05:31:04;100517.25;;;12.45;100.00
47753;BME280;2038;51.728;6.674;2023-03-19T05:33:31;100515.59;;;12.46;100.00
47753;BME280;2038;51.728;6.674;2023-03-19T05:35:58;100521.59;;;12.46;100.00
47753;BME280;2038;51.728;6.674;2023-03-19T05:38:24;100519.81;;;12.45;100.00
47753;BME280;2038;51.728;6.674;2023-03-19T05:40:51;100522.47;;;12.47;100.00
47753;BME280;2038;51.728;6.674;2023-03-19T05:43:17;100529.25;;;12.46;100.00
47753;BME280;2038;51.728;6.674;2023-03-19T05:45:50;100526.69;;;12.46;100.00
47753;BME280;2038;51.728;6.674;2023-03-19T05:48:19;100532.56;;;12.29;100.00
47753;BME280;2038;51.728;6.674;2023-03-19T05:50:45;100543.81;;;12.33;100.00
47753;BME280;2038;51.728;6.674;2023-03-19T05:53:12;100541.41;;;12.50;100.00
47753;BME280;2038;51.728;6.674;2023-03-19T05:55:38;100540.81;;;12.56;100.00
47753;BME280;2038;51.728;6.674;2023-03-19T05:58:05;100540.28;;;12.61;100.00
47753;BME280;2038;51.728;6.674;2023-03-19T06:00:32;100541.56;;;12.53;100.00
47753;BME280;2038;51.728;6.674;2023-03-19T06:02:58;100536.69;;;12.58;100.00
47753;BME280;2038;51.728;6.674;2023-03-19T06:05:25;100548.81;;;12.46;100.00
47753;BME280;2038;51.728;6.674;2023-03-19T06:07:51;100552.47;;;12.35;100.00
47753;BME280;2038;51.728;6.674;2023-03-19T06:10:18;100558.69;;;12.40;100.00
47753;BME280;2038;51.728;6.674;2023-03-19T06:12:44;100560.56;;;12.42;100.00
47753;BME280;2038;51.728;6.674;2023-03-19T06:15:10;100563.16;;;12.44;100.00
47753;BME280;2038;51.728;6.674;2023-03-19T06:17:36;100563.00;;;12.41;100.00
47753;BME280;2038;51.728;6.674;2023-03-19T06:20:04;100560.28;;;12.38;100.00
47753;BME280;2038;51.728;6.674;2023-03-19T06:22:30;100563.47;;;12.34;100.00
47753;BME280;2038;51.728;6.674;2023-03-19T06:24:56;100562.06;;;12.39;100.00
47753;BME280;2038;51.728;6.674;2023-03-19T06:27:23;100568.28;;;12.44;100.00
47753;BME280;2038;51.728;6.674;2023-03-19T06:29:49;100571.56;;;12.41;100.00
47753;BME280;2038;51.728;6.674;2023-03-19T06:32:15;100575.63;;;12.38;100.00
47753;BME280;2038;51.728;6.674;2023-03-19T06:34:42;100579.84;;;12.37;100.00
47753;BME280;2038;51.728;6.674;2023-03-19T06:37:08;100569.31;;;12.31;100.00
47753;BME280;2038;51.728;6.674;2023-03-19T06:39:34;100577.13;;;12.34;100.00
47753;BME280;2038;51.728;6.674;2023-03-19T06:42:01;100577.44;;;12.55;100.00
47753;BME280;2038;51.728;6.674;2023-03-19T06:44:28;100577.03;;;12.47;100.00
47753;BME280;2038;51.728;6.674;2023-03-19T06:46:54;100583.97;;;12.50;100.00
47753;BME280;2038;51.728;6.674;2023-03-19T06:49:21;100581.50;;;12.51;100.00
47753;BME280;2038;51.728;6.674;2023-03-19T06:51:47;100582.47;;;12.53;100.00
47753;BME280;2038;51.728;6.674;2023-03-19T06:54:13;100579.63;;;12.49;100.00
47753;BME280;2038;51.728;6.674;2023-03-19T06:56:40;100588.34;;;12.52;100.00
47753;BME280;2038;51.728;6.674;2023-03-19T06:59:06;100593.47;;;12.52;100.00
47753;BME280;2038;51.728;6.674;2023-03-19T07:01:32;100590.88;;;12.67;100.00
47753;BME280;2038;51.728;6.674;2023-03-19T07:03:59;100588.25;;;12.65;100.00
47753;BME280;2038;51.728;6.674;2023-03-19T07:06:25;100599.44;;;12.68;100.00
47753;BME280;2038;51.728;6.674;2023-03-19T07:08:51;100598.81;;;12.72;100.00
47753;BME280;2038;51.728;6.674;2023-03-19T07:11:17;100605.38;;;12.83;100.00
47753;BME280;2038;51.728;6.674;2023-03-19T07:13:43;100600.63;;;12.74;100.00
47753;BME280;2038;51.728;6.674;2023-03-19T07:16:10;100606.91;;;12.79;100.00
47753;BME280;2038;51.728;6.674;2023-03-19T07:18:36;100607.63;;;12.93;100.00
47753;BME280;2038;51.728;6.674;2023-03-19T07:21:02;100611.19;;;13.11;100.00
47753;BME280;2038;51.728;6.674;2023-03-19T07:23:29;100611.19;;;13.11;100.00
47753;BME280;2038;51.728;6.674;2023-03-19T07:25:55;100615.09;;;13.21;100.00
47753;BME280;2038;51.728;6.674;2023-03-19T07:28:22;100620.94;;;13.18;100.00
47753;BME280;2038;51.728;6.674;2023-03-19T07:30:50;100616.13;;;13.24;100.00
47753;BME280;2038;51.728;6.674;2023-03-19T07:33:18;100624.94;;;13.29;100.00
47753;BME280;2038;51.728;6.674;2023-03-19T07:35:45;100628.00;;;13.38;100.00
47753;BME280;2038;51.728;6.674;2023-03-19T07:38:12;100622.00;;;13.38;100.00
47753;BME280;2038;51.728;6.674;2023-03-19T07:40:39;100624.31;;;13.49;100.00
47753;BME280;2038;51.728;6.674;2023-03-19T07:43:06;100631.28;;;13.52;100.00
47753;BME280;2038;51.728;6.674;2023-03-19T07:45:32;100623.03;;;13.41;100.00
47753;BME280;2038;51.728;6.674;2023-03-19T07:47:58;100622.47;;;13.47;100.00
47753;BME280;2038;51.728;6.674;2023-03-19T07:50:28;100628.78;;;13.53;100.00
47753;BME280;2038;51.728;6.674;2023-03-19T07:52:56;100629.56;;;13.52;100.00
47753;BME280;2038;51.728;6.674;2023-03-19T07:55:23;100626.94;;;13.51;100.00
47753;BME280;2038;51.728;6.674;2023-03-19T07:57:49;100631.03;;;13.47;100.00
47753;BME280;2038;51.728;6.674;2023-03-19T08:00:16;100630.53;;;13.54;100.00
47753;BME280;2038;51.728;6.674;2023-03-19T08:02:43;100636.19;;;13.65;100.00
47753;BME280;2038;51.728;6.674;2023-03-19T08:05:10;100631.97;;;13.66;100.00
47753;BME280;2038;51.728;6.674;2023-03-19T08:07:37;100636.34;;;13.68;100.00
47753;BME280;2038;51.728;6.674;2023-03-19T08:10:04;100633.97;;;13.71;100.00
47753;BME280;2038;51.728;6.674;2023-03-19T08:12:32;100646.56;;;13.84;100.00
47753;BME280;2038;51.728;6.674;2023-03-19T08:14:59;100641.78;;;13.90;100.00
47753;BME280;2038;51.728;6.674;2023-03-19T08:17:25;100642.94;;;13.97;100.00
47753;BME280;2038;51.728;6.674;2023-03-19T08:19:52;100646.72;;;14.03;100.00
47753;BME280;2038;51.728;6.674;2023-03-19T08:22:18;100655.28;;;14.04;100.00
47753;BME280;2038;51.728;6.674;2023-03-19T08:24:44;100651.63;;;14.17;100.00
47753;BME280;2038;51.728;6.674;2023-03-19T08:27:10;100660.66;;;14.26;100.00
47753;BME280;2038;51.728;6.674;2023-03-19T08:29:37;100655.16;;;14.19;100.00
47753;BME280;2038;51.728;6.674;2023-03-19T08:32:03;100649.56;;;14.10;100.00
47753;BME280;2038;51.728;6.674;2023-03-19T08:34:29;100658.66;;;14.21;100.00
47753;BME280;2038;51.728;6.674;2023-03-19T08:36:55;100659.16;;;14.14;100.00
47753;BME280;2038;51.728;6.674;2023-03-19T08:39:22;100667.00;;;14.17;100.00
47753;BME280;2038;51.728;6.674;2023-03-19T08:41:48;100668.75;;;14.18;100.00
47753;BME280;2038;51.728;6.674;2023-03-19T08:44:16;100670.03;;;14.26;100.00
47753;BME280;2038;51.728;6.674;2023-03-19T08:46:42;100670.06;;;14.10;100.00
47753;BME280;2038;51.728;6.674;2023-03-19T08:49:08;100665.09;;;14.13;100.00
47753;BME280;2038;51.728;6.674;2023-03-19T08:51:34;100669.28;;;14.11;100.00
47753;BME280;2038;51.728;6.674;2023-03-19T08:54:01;100673.84;;;14.16;100.00
47753;BME280;2038;51.728;6.674;2023-03-19T08:56:27;100672.03;;;14.31;100.00
47753;BME280;2038;51.728;6.674;2023-03-19T08:58:55;100678.03;;;14.32;100.00
47753;BME280;2038;51.728;6.674;2023-03-19T09:01:22;100677.94;;;14.30;100.00
47753;BME280;2038;51.728;6.674;2023-03-19T09:03:49;100684.75;;;14.30;100.00
47753;BME280;2038;51.728;6.674;2023-03-19T09:06:15;100682.59;;;14.37;100.00
47753;BME280;2038;51.728;6.674;2023-03-19T09:08:41;100680.66;;;14.33;100.00
47753;BME280;2038;51.728;6.674;2023-03-19T09:11:08;100687.22;;;14.44;100.00
47753;BME280;2038;51.728;6.674;2023-03-19T09:13:36;100679.84;;;14.34;100.00
47753;BME280;2038;51.728;6.674;2023-03-19T09:16:03;100681.00;;;14.39;100.00
47753;BME280;2038;51.728;6.674;2023-03-19T09:18:29;100684.44;;;14.40;100.00
47753;BME280;2038;51.728;6.674;2023-03-19T09:20:56;100681.66;;;14.35;100.00
47753;BME280;2038;51.728;6.674;2023-03-19T09:23:22;100686.19;;;14.41;100.00
47753;BME280;2038;51.728;6.674;2023-03-19T09:25:49;100697.47;;;14.44;100.00
47753;BME280;2038;51.728;6.674;2023-03-19T09:28:16;100694.69;;;14.58;100.00
47753;BME280;2038;51.728;6.674;2023-03-19T09:30:44;100701.47;;;14.56;100.00
47753;BME280;2038;51.728;6.674;2023-03-19T09:33:15;100693.75;;;14.56;100.00
47753;BME280;2038;51.728;6.674;2023-03-19T09:35:47;100700.56;;;14.73;100.00
47753;BME280;2038;51.728;6.674;2023-03-19T09:38:15;100703.72;;;14.85;100.00
47753;BME280;2038;51.728;6.674;2023-03-19T09:40:45;100711.84;;;14.94;100.00
47753;BME280;2038;51.728;6.674;2023-03-19T09:46:42;100712.50;;;14.90;100.00
47753;BME280;2038;51.728;6.674;2023-03-19T09:49:26;100709.06;;;14.89;100.00
47753;BME280;2038;51.728;6.674;2023-03-19T09:52:08;100711.28;;;14.82;100.00
47753;BME280;2038;51.728;6.674;2023-03-19T09:54:52;100716.41;;;14.82;100.00
47753;BME280;2038;51.728;6.674;2023-03-19T09:57:23;100716.41;;;14.82;100.00
47753;BME280;2038;51.728;6.674;2023-03-19T09:59:49;100716.84;;;14.73;100.00
47753;BME280;2038;51.728;6.674;2023-03-19T10:02:40;100726.22;;;14.73;100.00
47753;BME280;2038;51.728;6.674;2023-03-19T10:17:34;100727.22;;;14.41;100.00
47753;BME280;2038;51.728;6.674;2023-03-19T10:23:11;100728.69;;;14.20;100.00
47753;BME280;2038;51.728;6.674;2023-03-19T10:25:51;100734.53;;;14.17;100.00
47753;BME280;2038;51.728;6.674;2023-03-19T10:28:21;100740.91;;;14.25;100.00
47753;BME280;2038;51.728;6.674;2023-03-19T10:33:44;100738.59;;;14.30;100.00
47753;BME280;2038;51.728;6.674;2023-03-19T10:36:20;100733.97;;;14.39;100.00
47753;BME280;2038;51.728;6.674;2023-03-19T10:38:51;100739.84;;;14.54;100.00
47753;BME280;2038;51.728;6.674;2023-03-19T10:41:40;100747.03;;;14.61;100.00
47753;BME280;2038;51.728;6.674;2023-03-19T10:46:51;100751.78;;;14.53;100.00
47753;BME280;2038;51.728;6.674;2023-03-19T10:49:17;100752.16;;;14.61;100.00
47753;BME280;2038;51.728;6.674;2023-03-19T10:51:45;100755.38;;;14.57;100.00
47753;BME280;2038;51.728;6.674;2023-03-19T10:54:23;100761.75;;;14.65;100.00
47753;BME280;2038;51.728;6.674;2023-03-19T10:56:54;100751.88;;;14.73;100.00
47753;BME280;2038;51.728;6.674;2023-03-19T10:59:23;100757.44;;;14.82;100.00
47753;BME280;2038;51.728;6.674;2023-03-19T11:02:06;100762.28;;;14.93;100.00
47753;BME280;2038;51.728;6.674;2023-03-19T11:04:42;100761.19;;;15.06;100.00
47753;BME280;2038;51.728;6.674;2023-03-19T11:07:14;100763.19;;;15.12;100.00
47753;BME280;2038;51.728;6.674;2023-03-19T11:09:49;100764.72;;;15.08;100.00
47753;BME280;2038;51.728;6.674;2023-03-19T11:12:33;100762.66;;;15.19;100.00
47753;BME280;2038;51.728;6.674;2023-03-19T11:15:02;100755.84;;;15.19;100.00
47753;BME280;2038;51.728;6.674;2023-03-19T11:17:47;100761.63;;;15.15;100.00
47753;BME280;2038;51.728;6.674;2023-03-19T11:20:31;100759.06;;;15.15;100.00
47753;BME280;2038;51.728;6.674;2023-03-19T11:23:00;100765.00;;;15.14;100.00
47753;BME280;2038;51.728;6.674;2023-03-19T11:25:30;100760.97;;;15.19;100.00
47753;BME280;2038;51.728;6.674;2023-03-19T11:28:17;100762.94;;;15.25;100.00
47753;BME280;2038;51.728;6.674;2023-03-19T11:36:55;100750.53;;;15.34;100.00
47753;BME280;2038;51.728;6.674;2023-03-19T11:39:57;100758.31;;;15.35;100.00
47753;BME280;2038;51.728;6.674;2023-03-19T11:42:38;100745.75;;;15.59;100.00
47753;BME280;2038;51.728;6.674;2023-03-19T11:48:33;100748.34;;;15.61;100.00
47753;BME280;2038;51.728;6.674;2023-03-19T11:54:04;100746.97;;;15.67;98.35
47753;BME280;2038;51.728;6.674;2023-03-19T11:56:43;100742.25;;;15.76;98.01
47753;BME280;2038;51.728;6.674;2023-03-19T12:04:33;100732.66;;;15.93;95.18
47753;BME280;2038;51.728;6.674;2023-03-19T12:19:14;100741.09;;;16.69;94.82
47753;BME280;2038;51.728;6.674;2023-03-19T12:22:15;100744.72;;;16.74;90.32
47753;BME280;2038;51.728;6.674;2023-03-19T12:33:56;100745.84;;;16.60;88.22
47753;BME280;2038;51.728;6.674;2023-03-19T12:36:49;100744.91;;;16.38;88.91
47753;BME280;2038;51.728;6.674;2023-03-19T12:39:27;100741.59;;;16.20;90.72
47753;BME280;2038;51.728;6.674;2023-03-19T12:42:01;100736.97;;;16.32;90.54
47753;BME280;2038;51.728;6.674;2023-03-19T12:44:36;100741.97;;;16.29;89.74
47753;BME280;2038;51.728;6.674;2023-03-19T12:47:12;100747.28;;;16.34;90.36
47753;BME280;2038;51.728;6.674;2023-03-19T12:49:57;100746.47;;;16.14;90.16
47753;BME280;2038;51.728;6.674;2023-03-19T12:52:36;100747.75;;;16.24;91.26
47753;BME280;2038;51.728;6.674;2023-03-19T12:58:10;100750.66;;;16.12;90.91
47753;BME280;2038;51.728;6.674;2023-03-19T13:01:07;100754.16;;;16.14;92.75
47753;BME280;2038;51.728;6.674;2023-03-19T13:06:27;100748.56;;;16.04;86.85
47753;BME280;2038;51.728;6.674;2023-03-19T13:09:23;100749.38;;;16.03;87.12
47753;BME280;2038;51.728;6.674;2023-03-19T13:12:04;100741.41;;;15.97;87.49
47753;BME280;2038;51.728;6.674;2023-03-19T13:23:02;100739.22;;;16.06;90.03
47753;BME280;2038;51.728;6.674;2023-03-19T13:25:39;100741.38;;;16.16;91.40
47753;BME280;2038;51.728;6.674;2023-03-19T13:28:17;100741.06;;;16.29;90.28
47753;BME280;2038;51.728;6.674;2023-03-19T13:31:00;100741.66;;;16.43;89.79
47753;BME280;2038;51.728;6.674;2023-03-19T13:33:33;100742.06;;;16.52;88.36
47753;BME280;2038;51.728;6.674;2023-03-19T13:36:12;100745.34;;;16.49;87.84
47753;BME280;2038;51.728;6.674;2023-03-19T13:38:50;100751.38;;;16.50;87.34
47753;BME280;2038;51.728;6.674;2023-03-19T13:55:29;100750.63;;;16.31;88.02
47753;BME280;2038;51.728;6.674;2023-03-19T14:03:23;100756.00;;;16.17;86.75
47753;BME280;2038;51.728;6.674;2023-03-19T14:05:54;100751.69;;;16.16;89.86
47753;BME280;2038;51.728;6.674;2023-03-19T14:08:25;100763.56;;;16.14;88.75
47753;BME280;2038;51.728;6.674;2023-03-19T14:10:57;100762.78;;;16.15;86.82
47753;BME280;2038;51.728;6.674;2023-03-19T14:13:28;100758.72;;;16.20;86.73
47753;BME280;2038;51.728;6.674;2023-03-19T14:16:10;100768.88;;;16.17;87.20
47753;BME280;2038;51.728;6.674;2023-03-19T14:18:42;100759.72;;;16.23;87.23
47753;BME280;2038;51.728;6.674;2023-03-19T14:21:14;100770.00;;;16.23;87.05
47753;BME280;2038;51.728;6.674;2023-03-19T14:23:51;100767.09;;;16.16;88.22
47753;BME280;2038;51.728;6.674;2023-03-19T14:26:24;100764.47;;;16.14;88.53
47753;BME280;2038;51.728;6.674;2023-03-19T14:29:03;100763.38;;;16.09;88.33
47753;BME280;2038;51.728;6.674;2023-03-19T14:31:41;100756.53;;;16.10;87.92
47753;BME280;2038;51.728;6.674;2023-03-19T14:34:41;100759.75;;;16.25;88.23
47753;BME280;2038;51.728;6.674;2023-03-19T14:37:22;100767.44;;;16.23;89.78
47753;BME280;2038;51.728;6.674;2023-03-19T14:40:08;100768.34;;;16.25;88.64